Terminal Aerodrome Forecast
Issued by NWS

Home | Current Version | Previous Version | Text Only | Print | Product List | Glossary On
Versions: 1 2 3 4 5 6 7 8 9 10 11 12 13 14 15 16 17 18 19 20
000
FTAK31 PAJN 211100
TAFAJN
TAF
PAJN 211125Z 2112/2212 08006KT 6SM -RA BR FEW005 SCT030 OVC060
     FM211500 12010KT 3SM RA BR BKN020 OVC040
     FM211800 13015G25KT 4SM RA BR BKN020 OVC040
     FM212300 13022G35KT 6SM -SHRA BR BKN025 OVC040
     FM220500 12015G25KT 5SM -SHRA BR BKN015 OVC040
     FM220900 12015KT 5SM -SHRA BR BKN015 OVC030=

USA.gov is the U.S. government's official web portal to all federal, state and local government web resources and services.